Time;durP1;ratioP1;P1;durP2;ratioP2;P2;SDS_P1;SDS_P2;PMS_P1;PMS_P2;Temp;Humidity;BMP_temperature;BMP_pressure;BME280_temperature;BME280_humidity;BME280_pressure;Samples;Min_cycle;Max_cycle;Signal;HPM_P1;HPM_P2
2023/06/20 00:01:25;;;;;;;7.38;6.10;;;22.50;99.90;;;;;;5055362;28;20179;-63
2023/06/20 00:03:50;;;;;;;8.43;6.55;;;22.50;99.90;;;;;;5055174;28;20179;-63
2023/06/20 00:06:22;;;;;;;6.80;6.03;;;22.50;99.90;;;;;;5055454;28;20179;-63
2023/06/20 00:08:47;;;;;;;9.85;6.38;;;22.50;99.90;;;;;;5055402;28;20279;-63
2023/06/20 00:11:13;;;;;;;8.88;6.28;;;22.40;99.90;;;;;;5055214;28;20229;-63
2023/06/20 00:13:42;;;;;;;7.78;6.40;;;22.30;99.90;;;;;;5055192;28;20175;-63
2023/06/20 00:16:09;;;;;;;9.32;6.45;;;22.40;99.90;;;;;;5055054;28;20176;-63
2023/06/20 00:18:34;;;;;;;9.20;6.70;;;22.50;99.90;;;;;;5054745;28;20235;-63
2023/06/20 00:21:00;;;;;;;7.72;6.93;;;22.30;99.90;;;;;;5054985;28;20167;-63
2023/06/20 00:23:29;;;;;;;9.48;6.97;;;22.40;99.90;;;;;;5055019;28;20172;-62
2023/06/20 00:25:55;;;;;;;6.57;5.95;;;22.40;99.90;;;;;;5054868;28;20179;-63
2023/06/20 00:28:21;;;;;;;9.75;6.28;;;22.30;99.90;;;;;;5054945;28;20636;-63
2023/06/20 00:30:47;;;;;;;7.65;6.75;;;22.50;99.90;;;;;;5055077;28;20187;-63
2023/06/20 00:33:12;;;;;;;8.75;6.68;;;22.40;99.90;;;;;;5054829;28;20263;-63
2023/06/20 00:35:38;;;;;;;8.88;7.80;;;22.30;99.90;;;;;;5054619;28;20168;-62
2023/06/20 00:38:04;;;;;;;8.73;7.60;;;22.30;99.90;;;;;;5054835;28;20211;-62
2023/06/20 00:40:29;;;;;;;9.15;7.28;;;22.10;99.90;;;;;;5053638;28;20179;-63
2023/06/20 00:42:55;;;;;;;8.52;7.40;;;22.00;99.90;;;;;;5054536;28;20232;-63
2023/06/20 00:45:32;;;;;;;9.98;7.45;;;21.90;99.90;;;;;;5054558;28;20203;-63
2023/06/20 00:48:00;;;;;;;12.13;8.75;;;22.00;99.90;;;;;;5054628;28;20175;-62
2023/06/20 00:50:27;;;;;;;9.02;8.13;;;22.00;99.90;;;;;;5054556;28;20534;-62
2023/06/20 00:52:59;;;;;;;12.32;8.20;;;21.90;99.90;;;;;;5054376;28;20258;-63
2023/06/20 00:55:29;;;;;;;9.82;8.00;;;21.90;99.90;;;;;;5054346;28;20314;-63
2023/06/20 00:57:57;;;;;;;9.70;7.50;;;22.00;99.90;;;;;;5054164;28;20211;-62
2023/06/20 01:00:27;;;;;;;7.82;6.97;;;22.00;99.90;;;;;;5054109;28;20643;-63
2023/06/20 01:03:03;;;;;;;8.88;7.38;;;21.90;99.90;;;;;;5036538;28;20548;-63
2023/06/20 01:05:30;;;;;;;8.68;7.40;;;22.00;99.90;;;;;;5054646;28;20170;-63
2023/06/20 01:08:08;;;;;;;8.73;7.80;;;21.90;99.90;;;;;;5054050;28;20568;-62
2023/06/20 01:10:44;;;;;;;10.05;7.40;;;22.00;99.90;;;;;;5053892;28;20171;-62
2023/06/20 01:13:34;;;;;;;9.25;7.70;;;22.00;99.90;;;;;;5054239;28;20531;-63
2023/06/20 01:16:26;;;;;;;9.43;7.50;;;22.00;99.90;;;;;;5036190;28;20168;-63
2023/06/20 01:19:00;;;;;;;10.80;7.85;;;22.00;99.90;;;;;;5056612;28;20229;-62
2023/06/20 01:21:34;;;;;;;11.43;8.45;;;22.00;99.90;;;;;;5074069;28;20177;-62
2023/06/20 01:24:25;;;;;;;10.45;8.32;;;22.00;99.90;;;;;;5073860;28;20657;-63
2023/06/20 01:27:04;;;;;;;10.18;8.95;;;22.00;99.90;;;;;;5073772;28;20643;-62
2023/06/20 01:29:36;;;;;;;15.02;9.10;;;22.00;99.90;;;;;;5073648;28;20174;-62
2023/06/20 01:32:09;;;;;;;9.98;8.90;;;21.90;99.90;;;;;;5073831;28;20189;-62
2023/06/20 01:34:39;;;;;;;10.02;8.52;;;21.90;99.90;;;;;;5073598;28;20236;-62
2023/06/20 01:37:13;;;;;;;10.43;8.82;;;21.80;99.90;;;;;;5073580;28;20202;-63
2023/06/20 01:39:59;;;;;;;11.60;8.70;;;21.90;99.90;;;;;;5073564;28;20517;-62
2023/06/20 01:42:26;;;;;;;11.27;9.13;;;21.80;99.90;;;;;;5074039;28;20171;-63
2023/06/20 01:44:58;;;;;;;11.38;9.55;;;21.90;99.90;;;;;;5073595;28;20182;-62
2023/06/20 01:47:25;;;;;;;12.55;8.75;;;21.90;99.90;;;;;;5073615;28;20170;-63
2023/06/20 01:49:53;;;;;;;9.52;8.52;;;21.80;99.90;;;;;;5073371;28;20171;-62
2023/06/20 01:52:20;;;;;;;11.23;9.38;;;21.80;99.90;;;;;;5073089;28;20167;-63
2023/06/20 01:54:49;;;;;;;12.02;8.73;;;21.80;99.90;;;;;;5073486;28;20171;-63
2023/06/20 01:57:16;;;;;;;11.23;8.80;;;21.80;99.90;;;;;;5073308;28;20198;-62
2023/06/20 01:59:43;;;;;;;11.32;8.60;;;21.70;99.90;;;;;;5073353;28;20186;-63
2023/06/20 02:02:10;;;;;;;12.05;8.48;;;21.80;99.90;;;;;;5072706;28;20249;-63
2023/06/20 02:04:36;;;;;;;10.88;9.02;;;21.70;99.90;;;;;;5073044;28;20173;-63
2023/06/20 02:07:04;;;;;;;11.80;9.43;;;21.80;99.90;;;;;;5073081;28;20174;-62
2023/06/20 02:09:30;;;;;;;11.43;9.50;;;21.90;99.90;;;;;;5073392;28;20202;-62
2023/06/20 02:11:58;;;;;;;10.48;8.63;;;21.90;99.90;;;;;;5073580;28;20179;-62
2023/06/20 02:14:25;;;;;;;10.80;9.32;;;21.80;99.90;;;;;;5073275;28;20170;-63
2023/06/20 02:16:51;;;;;;;12.45;10.13;;;21.80;99.90;;;;;;5070815;28;20576;-62
2023/06/20 02:19:17;;;;;;;11.60;10.40;;;21.80;99.90;;;;;;5053009;28;20213;-63
2023/06/20 02:21:45;;;;;;;11.20;9.73;;;21.80;99.90;;;;;;5053128;28;20197;-63
2023/06/20 02:24:15;;;;;;;13.98;9.80;;;21.70;99.90;;;;;;5053110;28;20170;-62
2023/06/20 02:26:43;;;;;;;11.40;9.20;;;21.60;99.90;;;;;;5053173;28;20171;-62
2023/06/20 02:29:14;;;;;;;12.52;9.80;;;21.70;99.90;;;;;;5052955;28;20183;-62
2023/06/20 02:31:45;;;;;;;10.82;9.52;;;21.70;99.90;;;;;;5052947;28;20167;-62
2023/06/20 02:34:18;;;;;;;11.93;9.55;;;21.70;99.90;;;;;;5052877;28;20175;-62
2023/06/20 02:36:46;;;;;;;13.18;10.02;;;21.60;99.90;;;;;;5052816;28;20183;-62
2023/06/20 02:39:15;;;;;;;10.65;9.63;;;21.50;99.90;;;;;;5053145;28;20282;-63
2023/06/20 02:41:42;;;;;;;9.20;8.30;;;21.50;99.90;;;;;;5052891;28;20185;-63
2023/06/20 02:44:08;;;;;;;10.43;9.32;;;21.60;99.90;;;;;;5052774;28;20183;-63
2023/06/20 02:46:42;;;;;;;12.00;9.23;;;21.60;99.90;;;;;;5052757;28;20198;-63
2023/06/20 02:49:35;;;;;;;12.55;9.25;;;21.60;99.90;;;;;;5052950;28;20218;-62
2023/06/20 02:52:24;;;;;;;11.65;9.32;;;21.60;99.90;;;;;;5052920;28;20656;-62
2023/06/20 02:55:04;;;;;;;11.40;9.32;;;21.60;99.90;;;;;;5051864;28;20187;-62
2023/06/20 02:57:37;;;;;;;12.85;9.13;;;21.70;99.90;;;;;;5052827;28;20613;-62
2023/06/20 03:00:09;;;;;;;11.00;9.23;;;21.60;99.90;;;;;;5052652;28;20644;-62
2023/06/20 03:02:39;;;;;;;11.57;10.10;;;21.60;99.90;;;;;;5052882;28;20574;-62
2023/06/20 03:05:09;;;;;;;10.88;9.55;;;21.60;99.90;;;;;;5055187;28;20521;-62
2023/06/20 03:07:36;;;;;;;11.73;9.77;;;21.60;99.90;;;;;;5056412;28;20186;-63
2023/06/20 03:10:04;;;;;;;11.82;9.70;;;21.50;99.90;;;;;;5056466;28;20176;-62
2023/06/20 03:12:32;;;;;;;14.70;9.77;;;21.50;99.90;;;;;;5056424;28;20591;-62
2023/06/20 03:14:58;;;;;;;9.73;8.80;;;21.60;99.90;;;;;;5056339;28;20659;-62
2023/06/20 03:17:24;;;;;;;10.18;9.15;;;21.50;99.90;;;;;;5056212;28;20231;-62
2023/06/20 03:19:49;;;;;;;10.43;9.38;;;21.50;99.90;;;;;;5056034;28;20513;-61
2023/06/20 03:22:15;;;;;;;11.85;8.75;;;21.60;99.90;;;;;;5056355;28;20632;-62
2023/06/20 03:24:40;;;;;;;10.98;9.07;;;21.60;99.90;;;;;;5056062;28;20167;-62
2023/06/20 03:27:06;;;;;;;10.82;9.73;;;21.60;99.90;;;;;;5056159;28;20183;-62
2023/06/20 03:29:32;;;;;;;10.80;9.38;;;21.40;99.90;;;;;;5055972;28;20167;-62
2023/06/20 03:31:58;;;;;;;11.98;9.70;;;21.40;99.90;;;;;;5055936;28;20175;-63
2023/06/20 03:34:24;;;;;;;13.73;10.45;;;21.40;99.90;;;;;;5055918;28;20175;-62
2023/06/20 03:36:50;;;;;;;14.55;10.32;;;21.30;99.90;;;;;;5055711;28;20258;-62
2023/06/20 03:39:15;;;;;;;13.85;10.52;;;21.30;99.90;;;;;;5056105;28;20180;-62
2023/06/20 03:41:41;;;;;;;13.90;9.32;;;21.40;99.90;;;;;;5055889;28;20175;-63
2023/06/20 03:44:07;;;;;;;13.35;9.82;;;21.40;99.90;;;;;;5055759;28;20179;-63
2023/06/20 03:46:32;;;;;;;13.93;10.40;;;21.40;99.90;;;;;;5055870;28;20628;-63
2023/06/20 03:48:58;;;;;;;12.48;9.68;;;21.40;99.90;;;;;;5037877;28;20184;-63
2023/06/20 03:51:23;;;;;;;14.10;10.13;;;21.40;99.90;;;;;;5055540;28;20632;-63
2023/06/20 03:53:49;;;;;;;11.75;9.35;;;21.40;99.90;;;;;;5055770;28;20182;-62
2023/06/20 03:56:15;;;;;;;12.40;9.60;;;21.40;99.90;;;;;;5055768;28;20683;-62
2023/06/20 03:58:40;;;;;;;11.95;9.38;;;21.50;99.90;;;;;;5055365;28;20568;-63
2023/06/20 04:01:06;;;;;;;12.02;9.48;;;21.40;99.90;;;;;;5055498;28;20249;-62
2023/06/20 04:03:32;;;;;;;11.07;9.50;;;21.40;99.90;;;;;;5055394;28;20190;-62
2023/06/20 04:06:02;;;;;;;11.02;9.70;;;21.40;99.90;;;;;;5055300;28;20175;-63
2023/06/20 04:08:29;;;;;;;12.77;9.27;;;21.30;99.90;;;;;;5055373;28;20183;-62
2023/06/20 04:10:55;;;;;;;11.85;9.00;;;21.30;99.90;;;;;;5055314;28;20210;-63
2023/06/20 04:13:21;;;;;;;11.23;9.10;;;21.30;99.90;;;;;;5055282;28;20213;-62
2023/06/20 04:15:46;;;;;;;10.73;9.43;;;21.30;99.90;;;;;;5055001;28;20636;-62
2023/06/20 04:18:12;;;;;;;11.10;8.88;;;21.20;99.90;;;;;;5055188;28;20233;-63
2023/06/20 04:20:37;;;;;;;12.98;8.85;;;21.20;99.90;;;;;;5055507;28;20171;-62
2023/06/20 04:23:03;;;;;;;11.18;8.30;;;21.10;99.90;;;;;;5055351;28;20318;-62
2023/06/20 04:25:29;;;;;;;8.70;7.88;;;21.10;99.90;;;;;;5055137;28;20175;-62
2023/06/20 04:27:55;;;;;;;11.05;8.15;;;21.10;99.90;;;;;;5055022;28;20189;-62
2023/06/20 04:30:22;;;;;;;12.13;8.48;;;21.20;99.90;;;;;;5054591;28;20194;-62
2023/06/20 04:32:47;;;;;;;9.50;7.90;;;21.20;99.90;;;;;;5053522;28;20183;-62
2023/06/20 04:35:14;;;;;;;9.55;8.65;;;21.20;99.90;;;;;;5054099;28;20179;-61
2023/06/20 04:37:40;;;;;;;10.27;8.65;;;21.20;99.90;;;;;;5054476;28;20660;-61
2023/06/20 04:40:08;;;;;;;10.48;8.27;;;21.20;99.90;;;;;;5054851;28;20224;-62
2023/06/20 04:42:34;;;;;;;9.75;8.00;;;21.30;99.90;;;;;;5054705;28;20171;-62
2023/06/20 04:44:59;;;;;;;9.00;7.78;;;21.30;99.90;;;;;;5054742;28;20716;-62
2023/06/20 04:47:25;;;;;;;9.95;7.53;;;21.30;99.90;;;;;;5054538;28;20536;-62
2023/06/20 04:49:50;;;;;;;8.82;7.60;;;21.40;99.90;;;;;;5054725;28;20199;-61
2023/06/20 04:52:16;;;;;;;8.38;7.57;;;21.40;99.90;;;;;;5054597;28;20180;-62
2023/06/20 04:54:42;;;;;;;12.02;7.50;;;21.50;99.90;;;;;;5054497;28;20183;-62
2023/06/20 04:57:08;;;;;;;9.30;7.82;;;21.50;99.90;;;;;;5054175;28;20203;-62
2023/06/20 04:59:35;;;;;;;9.10;7.85;;;21.50;99.90;;;;;;5054368;28;20660;-62
2023/06/20 05:02:05;;;;;;;10.73;7.72;;;21.60;99.90;;;;;;5054241;28;20611;-62
2023/06/20 05:04:30;;;;;;;10.55;7.85;;;21.70;99.90;;;;;;5054530;28;20179;-62
2023/06/20 05:06:56;;;;;;;9.45;7.55;;;21.70;99.90;;;;;;5054317;28;20171;-61
2023/06/20 05:09:22;;;;;;;9.35;8.30;;;21.60;99.90;;;;;;5054275;28;20197;-61
2023/06/20 05:11:47;;;;;;;9.88;7.82;;;21.50;99.90;;;;;;5054186;28;20221;-61
2023/06/20 05:14:13;;;;;;;12.85;7.88;;;21.60;99.90;;;;;;5054153;28;20171;-61
2023/06/20 05:16:38;;;;;;;10.15;7.53;;;21.60;99.90;;;;;;5053871;28;20560;-61
2023/06/20 05:19:04;;;;;;;10.88;7.90;;;21.60;99.90;;;;;;5054005;28;20234;-60
2023/06/20 05:21:29;;;;;;;11.75;8.23;;;21.50;99.90;;;;;;5034036;28;20262;-61
2023/06/20 05:23:55;;;;;;;8.63;7.82;;;21.60;99.90;;;;;;5033541;28;20723;-61
2023/06/20 05:26:21;;;;;;;9.48;7.43;;;21.50;99.90;;;;;;5048450;28;20229;-61
2023/06/20 05:28:46;;;;;;;8.05;7.25;;;21.60;99.90;;;;;;5053581;28;20175;-61
2023/06/20 05:31:12;;;;;;;8.27;7.35;;;21.60;99.90;;;;;;5053437;28;20229;-60
2023/06/20 05:33:38;;;;;;;10.63;7.82;;;21.60;99.90;;;;;;5053913;28;20176;-61
2023/06/20 05:36:04;;;;;;;11.57;8.38;;;21.80;99.90;;;;;;5053699;28;20179;-61
2023/06/20 05:38:31;;;;;;;8.95;7.43;;;21.70;99.90;;;;;;5053620;28;20211;-61
2023/06/20 05:40:58;;;;;;;8.23;7.38;;;21.90;99.90;;;;;;5053369;28;20548;-61
2023/06/20 05:43:24;;;;;;;11.00;8.15;;;22.00;99.90;;;;;;5053279;28;20692;-61
2023/06/20 05:45:49;;;;;;;9.10;7.88;;;21.90;99.90;;;;;;5053352;28;20251;-61
2023/06/20 05:48:15;;;;;;;8.98;8.07;;;22.10;99.90;;;;;;5053630;28;20216;-61
2023/06/20 05:50:41;;;;;;;8.80;7.30;;;22.10;99.90;;;;;;5053240;28;20193;-61
2023/06/20 05:53:07;;;;;;;11.85;8.27;;;22.20;99.90;;;;;;5053507;28;20176;-61
2023/06/20 05:55:33;;;;;;;11.23;7.85;;;22.30;99.90;;;;;;5053406;28;20178;-61
2023/06/20 05:57:59;;;;;;;9.98;7.22;;;22.20;99.90;;;;;;5053093;28;20293;-61
2023/06/20 06:00:25;;;;;;;8.70;7.30;;;22.30;99.90;;;;;;5053191;28;20187;-61
2023/06/20 06:02:50;;;;;;;11.02;7.45;;;22.30;99.90;;;;;;5053178;28;20179;-60
2023/06/20 06:05:16;;;;;;;7.90;7.20;;;22.40;99.90;;;;;;5053746;28;20183;-60
2023/06/20 06:07:42;;;;;;;7.38;6.72;;;22.50;99.90;;;;;;5053248;28;20194;-60
2023/06/20 06:10:08;;;;;;;8.60;7.30;;;22.50;99.90;;;;;;5053276;28;20172;-60
2023/06/20 06:12:36;;;;;;;9.10;7.15;;;22.60;99.90;;;;;;5053189;28;20191;-60
2023/06/20 06:15:05;;;;;;;7.00;6.30;;;22.70;99.90;;;;;;5052915;28;20171;-60
2023/06/20 06:17:32;;;;;;;8.38;7.10;;;22.80;99.90;;;;;;5052993;28;20242;-61
2023/06/20 06:19:58;;;;;;;10.18;6.68;;;22.70;99.90;;;;;;5053047;28;20184;-60
2023/06/20 06:22:24;;;;;;;6.40;5.80;;;22.90;99.90;;;;;;5053202;28;20313;-60
2023/06/20 06:24:50;;;;;;;7.05;5.57;;;22.80;99.90;;;;;;5053070;28;20207;-60
2023/06/20 06:27:17;;;;;;;7.18;6.10;;;23.00;99.90;;;;;;5052759;28;20187;-60
2023/06/20 06:29:43;;;;;;;8.02;5.93;;;23.10;99.90;;;;;;5052986;28;20183;-60
2023/06/20 06:32:10;;;;;;;6.72;5.78;;;23.20;99.90;;;;;;5053115;28;20179;-60
2023/06/20 06:34:36;;;;;;;7.18;6.03;;;23.10;99.90;;;;;;5053119;28;20182;-61
2023/06/20 06:37:03;;;;;;;5.80;5.05;;;23.30;99.90;;;;;;5052868;28;20275;-61
2023/06/20 06:39:29;;;;;;;6.70;6.05;;;23.50;99.90;;;;;;5054473;28;20172;-60
2023/06/20 06:41:55;;;;;;;7.85;6.45;;;23.60;99.90;;;;;;5056830;28;20635;-61
2023/06/20 06:44:21;;;;;;;5.97;5.35;;;23.70;99.90;;;;;;5056640;28;20191;-61
2023/06/20 06:46:46;;;;;;;6.53;5.50;;;23.60;99.90;;;;;;5056975;28;20628;-60
2023/06/20 06:49:12;;;;;;;8.10;5.30;;;23.50;99.90;;;;;;5056968;28;20175;-60
2023/06/20 06:51:39;;;;;;;8.05;5.28;;;23.50;99.90;;;;;;5056794;28;20178;-60
2023/06/20 06:54:05;;;;;;;5.00;4.50;;;23.50;99.90;;;;;;5056816;28;20258;-60
2023/06/20 06:56:30;;;;;;;7.00;4.55;;;23.70;99.90;;;;;;5056513;28;20663;-60
2023/06/20 06:59:00;;;;;;;6.07;4.60;;;24.00;99.90;;;;;;5056576;28;20203;-61
2023/06/20 07:01:28;;;;;;;6.00;4.40;;;24.00;99.90;;;;;;5056699;28;20185;-60
2023/06/20 07:03:54;;;;;;;4.80;4.40;;;23.90;99.90;;;;;;5056587;28;20179;-60
2023/06/20 07:06:20;;;;;;;4.50;4.10;;;24.20;99.90;;;;;;5056607;28;20213;-61
2023/06/20 07:08:45;;;;;;;5.93;5.03;;;24.40;99.90;;;;;;5056576;28;20274;-60
2023/06/20 07:11:11;;;;;;;5.53;4.95;;;24.50;99.90;;;;;;5056345;28;20263;-60
2023/06/20 07:13:37;;;;;;;6.00;4.55;;;24.50;99.90;;;;;;5056288;28;20178;-61
2023/06/20 07:16:03;;;;;;;5.43;4.20;;;24.60;99.90;;;;;;5056525;28;20555;-60
2023/06/20 07:18:28;;;;;;;7.38;4.00;;;24.70;99.90;;;;;;5056303;28;20231;-60
2023/06/20 07:20:57;;;;;;;4.40;4.00;;;24.90;99.90;;;;;;5056176;28;20245;-60
2023/06/20 07:23:22;;;;;;;4.25;3.85;;;24.90;99.90;;;;;;5056096;28;20171;-60
2023/06/20 07:25:48;;;;;;;6.80;4.20;;;24.90;99.90;;;;;;5055764;28;20266;-60
2023/06/20 07:28:14;;;;;;;4.20;3.80;;;25.00;99.90;;;;;;5055884;28;20179;-61
2023/06/20 07:30:39;;;;;;;4.78;3.33;;;25.10;99.90;;;;;;5056011;28;20186;-60
2023/06/20 07:33:06;;;;;;;5.00;3.63;;;25.10;99.90;;;;;;5055970;28;20217;-60
2023/06/20 07:35:32;;;;;;;3.55;3.25;;;25.20;99.90;;;;;;5056037;28;20187;-60
2023/06/20 07:37:58;;;;;;;4.18;3.78;;;25.30;99.90;;;;;;5055613;28;20302;-61
2023/06/20 07:40:23;;;;;;;6.32;3.70;;;25.70;99.90;;;;;;5055594;28;20254;-60
2023/06/20 07:42:49;;;;;;;4.22;3.80;;;25.60;99.90;;;;;;5055365;28;20283;-61
2023/06/20 07:45:14;;;;;;;4.78;4.20;;;25.50;99.90;;;;;;5035869;28;20177;-60
2023/06/20 07:47:40;;;;;;;4.32;3.90;;;25.50;99.90;;;;;;5035806;28;20179;-61
2023/06/20 07:50:06;;;;;;;4.78;3.50;;;25.50;99.90;;;;;;5035240;28;20536;-61
2023/06/20 07:52:33;;;;;;;5.57;3.78;;;25.70;99.90;;;;;;5035660;28;20649;-61
2023/06/20 07:55:01;;;;;;;5.50;3.80;;;25.80;99.90;;;;;;5035335;28;20183;-60
2023/06/20 07:57:29;;;;;;;3.63;3.33;;;25.80;99.90;;;;;;5048859;28;20679;-61
2023/06/20 07:59:55;;;;;;;4.15;3.78;;;25.90;99.90;;;;;;5054184;28;20175;-61
2023/06/20 08:02:21;;;;;;;6.03;4.40;;;26.00;99.90;;;;;;5055532;28;20538;-61
2023/06/20 08:04:47;;;;;;;4.85;3.70;;;26.30;99.90;;;;;;5055436;28;20179;-61
2023/06/20 08:07:13;;;;;;;4.70;3.67;;;26.50;99.90;;;;;;5055343;28;20171;-61
2023/06/20 08:09:39;;;;;;;5.18;4.20;;;26.70;99.90;;;;;;5055294;28;20536;-61
2023/06/20 08:12:05;;;;;;;4.60;3.90;;;26.50;99.90;;;;;;5055083;28;20183;-61
2023/06/20 08:14:30;;;;;;;4.47;4.07;;;26.40;99.90;;;;;;5055286;28;20186;-61
2023/06/20 08:16:57;;;;;;;4.35;3.95;;;26.60;99.90;;;;;;5054944;28;20223;-61
2023/06/20 08:19:22;;;;;;;5.10;4.22;;;26.70;99.90;;;;;;5055318;28;20171;-61
2023/06/20 08:21:48;;;;;;;4.78;3.38;;;26.80;99.90;;;;;;5055079;28;20226;-60
2023/06/20 08:24:13;;;;;;;4.07;3.72;;;27.00;99.90;;;;;;5055060;28;20172;-60
2023/06/20 08:26:39;;;;;;;4.95;3.83;;;27.20;99.90;;;;;;5054671;28;20171;-60
2023/06/20 08:29:08;;;;;;;3.78;3.42;;;27.30;99.90;;;;;;5055072;28;20540;-61
2023/06/20 08:31:36;;;;;;;4.85;3.35;;;27.40;99.90;;;;;;5054956;28;20310;-61
2023/06/20 08:34:03;;;;;;;4.07;3.50;;;27.50;99.90;;;;;;5054827;28;20184;-61
2023/06/20 08:36:29;;;;;;;4.45;3.70;;;27.80;99.90;;;;;;5054777;28;20183;-61
2023/06/20 08:38:54;;;;;;;7.20;3.80;;;27.70;99.90;;;;;;5054479;28;20210;-61
2023/06/20 08:41:26;;;;;;;4.53;4.10;;;27.70;99.90;;;;;;5054556;28;20176;-61
2023/06/20 08:43:52;;;;;;;4.10;3.70;;;27.70;99.90;;;;;;5054354;28;20312;-61
2023/06/20 08:46:19;;;;;;;3.60;3.28;;;27.60;99.90;;;;;;5054515;28;20636;-61
2023/06/20 08:48:46;;;;;;;5.25;3.67;;;27.70;99.90;;;;;;5054693;28;20202;-61
2023/06/20 08:51:15;;;;;;;5.50;3.30;;;27.60;99.90;;;;;;5054536;28;20587;-61
2023/06/20 08:53:48;;;;;;;8.02;3.90;;;27.90;99.90;;;;;;5054419;28;20536;-61
2023/06/20 08:56:16;;;;;;;6.45;3.33;;;28.10;99.90;;;;;;5054492;28;20171;-61
2023/06/20 08:58:41;;;;;;;4.60;3.63;;;28.20;99.90;;;;;;5054359;28;20345;-61
2023/06/20 09:01:08;;;;;;;5.15;3.63;;;28.10;99.50;;;;;;5054191;28;20218;-61
2023/06/20 09:03:35;;;;;;;4.10;2.92;;;28.20;99.60;;;;;;5053872;28;20175;-61
2023/06/20 09:06:01;;;;;;;4.55;3.00;;;28.20;98.70;;;;;;5054192;28;20176;-61
2023/06/20 09:08:39;;;;;;;4.40;2.63;;;28.50;99.40;;;;;;5054025;28;20190;-61
2023/06/20 09:11:09;;;;;;;6.03;3.10;;;28.50;99.20;;;;;;5054322;28;20175;-61
2023/06/20 09:13:35;;;;;;;4.70;2.63;;;28.80;98.90;;;;;;5054109;28;20556;-61
2023/06/20 09:16:09;;;;;;;3.83;3.00;;;29.00;98.50;;;;;;5054062;28;20199;-61
2023/06/20 09:18:35;;;;;;;3.25;2.90;;;29.10;98.20;;;;;;5053661;28;20295;-61
2023/06/20 09:21:02;;;;;;;3.95;2.60;;;29.20;98.30;;;;;;5053856;28;20179;-61
2023/06/20 09:23:32;;;;;;;2.90;2.60;;;29.20;97.10;;;;;;5054057;28;20621;-61
2023/06/20 09:26:15;;;;;;;4.30;2.47;;;29.10;97.40;;;;;;5053984;28;20168;-62
2023/06/20 09:28:41;;;;;;;5.82;3.00;;;29.10;97.10;;;;;;5053900;28;20183;-61
2023/06/20 09:31:07;;;;;;;3.05;2.30;;;28.90;97.30;;;;;;5053733;28;20173;-61
2023/06/20 09:33:37;;;;;;;4.03;2.33;;;29.10;97.70;;;;;;5053638;28;20199;-61
2023/06/20 09:36:15;;;;;;;3.95;2.33;;;29.30;97.70;;;;;;5053807;28;20175;-61
2023/06/20 09:38:50;;;;;;;6.82;2.60;;;29.10;97.10;;;;;;5053572;28;20207;-61
2023/06/20 09:41:16;;;;;;;3.65;2.47;;;29.30;97.00;;;;;;5053668;28;20174;-61
2023/06/20 09:43:43;;;;;;;4.72;2.95;;;29.20;97.20;;;;;;5053392;28;20183;-61
2023/06/20 09:46:08;;;;;;;2.25;2.05;;;29.40;97.10;;;;;;5053484;28;20187;-62
2023/06/20 09:48:35;;;;;;;3.13;2.30;;;29.60;97.00;;;;;;5053610;28;20190;-61
2023/06/20 09:51:02;;;;;;;5.65;2.40;;;29.60;96.30;;;;;;5053484;28;20174;-61
2023/06/20 09:53:54;;;;;;;3.55;2.30;;;29.90;95.80;;;;;;5053431;28;20225;-61
2023/06/20 09:56:20;;;;;;;5.25;2.60;;;29.90;96.00;;;;;;5035774;28;20675;-61
2023/06/20 09:58:47;;;;;;;2.67;2.47;;;30.30;96.00;;;;;;5053505;28;20230;-61
2023/06/20 10:01:20;;;;;;;2.95;2.38;;;30.10;95.30;;;;;;5053371;28;20205;-61
2023/06/20 10:03:47;;;;;;;3.53;2.10;;;30.40;95.20;;;;;;5053151;28;20532;-61
2023/06/20 10:06:14;;;;;;;2.58;2.38;;;30.50;95.40;;;;;;5053289;28;20179;-61
2023/06/20 10:08:43;;;;;;;2.92;2.33;;;30.70;95.30;;;;;;5053186;28;20171;-61
2023/06/20 10:11:09;;;;;;;4.45;2.70;;;30.70;95.00;;;;;;5053409;28;20171;-62
2023/06/20 10:13:35;;;;;;;3.60;2.22;;;30.90;94.80;;;;;;5053072;28;20683;-62
2023/06/20 10:16:01;;;;;;;3.28;2.40;;;31.00;95.20;;;;;;5053180;28;20186;-62
2023/06/20 10:18:29;;;;;;;3.22;2.42;;;31.10;95.10;;;;;;5052798;28;20332;-62
2023/06/20 10:20:55;;;;;;;2.95;2.40;;;31.00;94.60;;;;;;5053046;28;20179;-62
2023/06/20 10:23:29;;;;;;;2.90;2.58;;;31.10;94.70;;;;;;5053064;28;20206;-62
2023/06/20 10:25:58;;;;;;;3.38;2.30;;;30.50;94.40;;;;;;5053173;28;20236;-62
2023/06/20 10:28:24;;;;;;;4.43;2.58;;;30.50;95.40;;;;;;5053087;28;20592;-62
2023/06/20 10:30:50;;;;;;;2.40;2.20;;;30.70;95.30;;;;;;5053124;28;20229;-62
2023/06/20 10:33:33;;;;;;;3.25;2.65;;;30.80;95.10;;;;;;5052899;28;20179;-62
2023/06/20 10:36:13;;;;;;;4.75;2.25;;;30.80;94.90;;;;;;5052870;28;20174;-62
2023/06/20 10:38:51;;;;;;;4.80;2.65;;;30.90;95.20;;;;;;5053022;28;20214;-62
2023/06/20 10:41:24;;;;;;;2.38;2.20;;;30.90;94.70;;;;;;5053008;28;20167;-62
2023/06/20 10:43:54;;;;;;;3.83;2.38;;;30.80;95.20;;;;;;5052984;28;20229;-62
2023/06/20 10:46:34;;;;;;;3.17;2.33;;;30.80;95.10;;;;;;5052153;28;20659;-62
2023/06/20 10:48:59;;;;;;;4.03;2.30;;;30.90;95.00;;;;;;5052365;28;20175;-62
2023/06/20 10:51:26;;;;;;;4.25;2.55;;;31.00;94.60;;;;;;5052930;28;20202;-61
2023/06/20 10:53:51;;;;;;;4.63;2.83;;;31.10;94.60;;;;;;5052957;28;20194;-61
2023/06/20 10:56:30;;;;;;;3.08;2.78;;;31.10;94.30;;;;;;5052629;28;20175;-61
2023/06/20 10:58:55;;;;;;;4.78;2.50;;;31.00;94.70;;;;;;5052630;28;20203;-62
2023/06/20 11:01:26;;;;;;;3.50;2.25;;;31.10;94.90;;;;;;5052499;28;20304;-62
2023/06/20 11:03:52;;;;;;;4.85;2.80;;;30.70;94.90;;;;;;5052541;28;20182;-62
2023/06/20 11:06:19;;;;;;;3.90;2.60;;;30.50;94.70;;;;;;5052655;28;20270;-62
2023/06/20 11:08:45;;;;;;;2.97;2.40;;;30.50;94.90;;;;;;5052636;28;20600;-62
2023/06/20 11:11:11;;;;;;;5.32;2.85;;;30.70;95.20;;;;;;5052636;28;20206;-62
2023/06/20 11:13:43;;;;;;;3.80;2.45;;;30.80;95.10;;;;;;5052498;28;20199;-62
2023/06/20 11:16:16;;;;;;;3.20;2.70;;;30.90;94.90;;;;;;5052743;28;20607;-62
2023/06/20 11:18:42;;;;;;;4.15;2.53;;;31.00;94.50;;;;;;5052583;28;20234;-62
2023/06/20 11:21:09;;;;;;;3.55;2.60;;;31.10;94.90;;;;;;5052717;28;20171;-62
2023/06/20 11:23:37;;;;;;;3.92;2.53;;;31.10;94.40;;;;;;5052527;28;20264;-62
2023/06/20 11:26:03;;;;;;;3.03;2.75;;;31.20;94.60;;;;;;5054679;28;20171;-63
2023/06/20 11:28:28;;;;;;;3.25;2.63;;;31.40;94.60;;;;;;5056482;28;20641;-62
2023/06/20 11:30:54;;;;;;;2.63;2.40;;;31.10;94.30;;;;;;5056243;28;20569;-63
2023/06/20 11:33:20;;;;;;;2.97;2.67;;;30.50;94.60;;;;;;5056032;28;20187;-63
2023/06/20 11:35:54;;;;;;;3.45;2.67;;;30.30;95.30;;;;;;5056105;28;20167;-63
2023/06/20 11:38:20;;;;;;;5.88;2.92;;;30.00;94.80;;;;;;5055950;28;20206;-63
2023/06/20 11:40:50;;;;;;;2.88;2.67;;;29.50;95.60;;;;;;5055757;28;20175;-63
2023/06/20 11:43:25;;;;;;;3.85;2.92;;;29.80;96.40;;;;;;5055914;28;20266;-63
2023/06/20 11:45:50;;;;;;;3.05;2.85;;;30.00;95.80;;;;;;5055939;28;20227;-63
2023/06/20 11:48:17;;;;;;;3.00;2.60;;;29.80;96.00;;;;;;5055716;28;20180;-62
2023/06/20 11:50:46;;;;;;;3.88;2.72;;;30.30;96.30;;;;;;5055638;28;20183;-63
2023/06/20 11:53:34;;;;;;;3.20;2.90;;;30.30;95.70;;;;;;5055502;28;20187;-63
2023/06/20 11:56:06;;;;;;;3.45;2.80;;;30.40;95.90;;;;;;5055977;28;20179;-63
2023/06/20 11:58:41;;;;;;;4.65;2.72;;;30.20;95.30;;;;;;5055571;28;20624;-63
2023/06/20 12:01:13;;;;;;;3.75;2.80;;;30.10;95.80;;;;;;5055497;28;20178;-63
2023/06/20 12:03:41;;;;;;;4.25;2.70;;;30.10;96.10;;;;;;5055266;28;20179;-63
2023/06/20 12:06:27;;;;;;;4.25;3.05;;;30.10;95.90;;;;;;5055491;28;20176;-62
2023/06/20 12:08:54;;;;;;;3.90;2.97;;;30.30;95.80;;;;;;5055367;28;20187;-62
2023/06/20 12:11:20;;;;;;;3.75;2.78;;;30.30;96.00;;;;;;5055295;28;20533;-62
2023/06/20 12:13:47;;;;;;;3.20;2.60;;;30.20;96.00;;;;;;5055210;28;20172;-63
2023/06/20 12:16:13;;;;;;;5.30;2.70;;;29.80;94.80;;;;;;5055095;28;20179;-63
2023/06/20 12:18:39;;;;;;;4.05;2.53;;;30.10;96.00;;;;;;5054861;28;20565;-63
2023/06/20 12:21:04;;;;;;;5.00;3.00;;;29.90;95.40;;;;;;5055047;28;20175;-62
2023/06/20 12:23:31;;;;;;;3.88;2.58;;;29.90;95.60;;;;;;5054930;28;20183;-63
2023/06/20 12:25:57;;;;;;;3.25;3.00;;;29.70;95.90;;;;;;5054800;28;20175;-63
2023/06/20 12:28:23;;;;;;;3.88;2.67;;;29.70;96.20;;;;;;5054739;28;20191;-63
2023/06/20 12:30:49;;;;;;;3.33;3.00;;;29.60;95.80;;;;;;5054969;28;20631;-63
2023/06/20 12:33:15;;;;;;;3.67;2.78;;;29.80;96.30;;;;;;5054930;28;20192;-63
2023/06/20 12:35:41;;;;;;;5.80;2.92;;;29.90;95.90;;;;;;5054771;28;20169;-62
2023/06/20 12:38:07;;;;;;;5.13;3.08;;;29.90;95.30;;;;;;5054648;28;20341;-63
2023/06/20 12:40:32;;;;;;;2.85;2.63;;;30.00;95.30;;;;;;5054659;28;20258;-62
2023/06/20 12:42:58;;;;;;;3.40;3.10;;;30.10;95.70;;;;;;5054561;28;20183;-63
2023/06/20 12:45:24;;;;;;;3.40;3.10;;;30.10;94.90;;;;;;5054445;28;20176;-63
2023/06/20 12:47:50;;;;;;;7.95;3.40;;;30.00;95.30;;;;;;5054670;28;20180;-63